Time;durP1;ratioP1;P1;durP2;ratioP2;P2;SDS_P1;SDS_P2;PMS_P1;PMS_P2;Temp;Humidity;BMP_temperature;BMP_pressure;BME280_temperature;BME280_humidity;BME280_pressure;Samples;Min_cycle;Max_cycle;Signal;HPM_P1;HPM_P2
2022/02/10 00:05:38;;;;;;;10.40;6.32;;;;;;;9.99;66.22;100863.34;5063868;28;20059;-59
2022/02/10 00:19:16;;;;;;;10.98;6.95;;;;;;;9.65;66.83;100839.34;5045526;28;20072;-57
2022/02/10 00:21:53;;;;;;;13.13;6.63;;;;;;;9.57;66.86;100836.41;5034920;28;20540;-59
2022/02/10 00:35:33;;;;;;;10.98;7.78;;;;;;;8.96;67.57;100812.97;5054309;28;20079;-59
2022/02/10 00:38:00;;;;;;;10.20;7.10;;;;;;;8.83;68.06;100817.28;5070923;28;20412;-59
2022/02/10 00:40:29;;;;;;;11.52;6.80;;;;;;;8.73;67.99;100818.22;5070751;28;20082;-59
2022/02/10 00:42:59;;;;;;;9.93;8.00;;;;;;;8.63;67.86;100819.16;5069658;28;20048;-59
2022/02/10 00:45:30;;;;;;;;;;;;;;;8.52;68.58;100817.59;5050864;28;20053;-59
2022/02/10 00:48:00;;;;;;;9.40;7.53;;;;;;;8.42;67.93;100818.53;5052758;28;19921;-59
2022/02/10 00:50:29;;;;;;;8.63;6.20;;;;;;;8.28;68.80;100814.72;5057057;28;20045;-59
2022/02/10 00:53:02;;;;;;;11.60;7.22;;;;;;;8.19;68.95;100813.69;5067215;28;20053;-58
2022/02/10 00:55:31;;;;;;;11.30;7.45;;;;;;;8.13;69.16;100815.69;5058508;28;20048;-58
2022/02/10 00:58:00;;;;;;;11.10;7.10;;;;;;;8.07;69.19;100811.28;5051974;28;20053;-59
2022/02/10 01:12:05;;;;;;;12.88;7.90;;;;;;;7.66;70.35;100809.59;5058861;28;20055;-59
2022/02/10 01:31:03;;;;;;;10.65;7.35;;;;;;;7.43;70.74;100786.22;5056289;28;20055;-59
2022/02/10 01:33:34;;;;;;;11.57;7.65;;;;;;;7.45;70.72;100786.72;5070435;28;20060;-58
2022/02/10 01:36:01;;;;;;;11.98;7.28;;;;;;;7.44;70.92;100787.03;5072140;28;20051;-58
2022/02/10 01:38:28;;;;;;;10.55;7.63;;;;;;;7.47;71.27;100781.72;5069612;28;21000;-56
2022/02/10 01:58:01;;;;;;;10.23;7.45;;;;;;;7.26;71.16;100747.75;5036403;28;20426;-57
2022/02/10 02:06:08;;;;;;;10.35;7.82;;;;;;;7.09;70.79;100734.28;5057205;28;20041;-56
2022/02/10 02:08:38;;;;;;;12.25;7.80;;;;;;;7.02;71.46;100719.09;5051140;28;20061;-55
2022/02/10 02:11:05;;;;;;;9.88;7.72;;;;;;;6.97;70.98;100719.09;5055507;28;20482;-57
2022/02/10 02:13:33;;;;;;;11.32;8.20;;;;;;;6.87;71.78;100711.69;5069660;28;20505;-57
2022/02/10 02:16:01;;;;;;;14.10;7.50;;;;;;;6.80;71.22;100711.97;5052667;28;20056;-58
2022/02/10 02:18:28;;;;;;;13.43;7.93;;;;;;;6.75;71.69;100700.13;5066727;28;20053;-58
2022/02/10 02:20:57;;;;;;;16.25;8.52;;;;;;;6.66;71.17;100702.66;5042948;28;20119;-58
2022/02/10 02:23:28;;;;;;;10.70;7.05;;;;;;;6.60;71.66;100698.25;5055783;28;20398;-58
2022/02/10 02:26:03;;;;;;;12.30;8.65;;;;;;;6.50;72.31;100697.16;5062469;28;20540;-58
2022/02/10 02:28:34;;;;;;;12.48;7.45;;;;;;;6.48;71.95;100693.00;5074277;28;20512;-58
2022/02/10 02:31:06;;;;;;;15.32;8.80;;;;;;;6.26;73.15;100687.81;5073447;28;20064;-58
2022/02/10 02:34:07;;;;;;;11.82;7.85;;;;;;;6.27;72.63;100692.22;5066862;28;20048;-58
2022/02/10 03:06:42;;;;;;;12.15;7.90;;;;;;;6.09;73.92;100658.53;5056628;28;20049;-58
2022/02/10 03:09:13;;;;;;;14.48;8.35;;;;;;;6.16;73.60;100651.88;5071238;28;20056;-58
2022/02/10 03:11:43;;;;;;;13.25;8.57;;;;;;;6.19;74.02;100645.78;5053899;28;20049;-57
2022/02/10 03:14:14;;;;;;;12.60;8.52;;;;;;;6.19;73.30;100646.59;5060217;28;20064;-58
2022/02/10 03:17:11;;;;;;;11.70;8.85;;;;;;;6.19;73.76;100649.38;5046931;28;20049;-57
2022/02/10 03:19:55;;;;;;;14.00;8.35;;;;;;;6.23;74.07;100650.47;5056995;28;20391;-58
2022/02/10 03:22:39;;;;;;;18.30;9.05;;;;;;;6.30;74.77;100644.66;5068172;28;20434;-58
2022/02/10 04:04:04;;;;;;;14.27;9.43;;;;;;;7.16;73.29;100589.09;5037806;28;20422;-58
2022/02/10 04:06:55;;;;;;;11.80;8.48;;;;;;;7.06;73.73;100581.72;5062739;28;20063;-56
2022/02/10 04:12:35;;;;;;;9.73;7.63;;;;;;;6.98;73.45;100574.00;5050446;28;20470;-55
2022/02/10 04:15:10;;;;;;;13.52;9.65;;;;;;;6.90;73.53;100561.59;5055343;28;20079;-56
2022/02/10 04:17:59;;;;;;;12.65;8.30;;;;;;;6.87;73.87;100565.78;5069848;28;20052;-54
2022/02/10 04:20:49;;;;;;;16.27;9.18;;;;;;;6.80;73.70;100573.56;5059377;28;20358;-57
2022/02/10 04:23:31;;;;;;;17.63;10.10;;;;;;;6.74;74.41;100563.66;5056860;28;20386;-56
2022/02/10 04:26:11;;;;;;;16.15;9.80;;;;;;;6.78;75.26;100566.66;5033392;28;20053;-55
2022/02/10 04:28:56;;;;;;;13.57;9.60;;;;;;;6.80;75.08;100572.72;5040766;28;20052;-54
2022/02/10 04:37:40;;;;;;;13.98;10.30;;;;;;;6.75;74.54;100562.53;5066462;28;20055;-57
2022/02/10 04:56:58;;;;;;;12.50;8.57;;;;;;;6.38;73.83;100563.81;5070261;28;20059;-56
2022/02/10 04:59:44;;;;;;;14.70;9.10;;;;;;;6.29;74.01;100560.81;5072093;28;20060;-58
2022/02/10 05:05:42;;;;;;;12.77;7.93;;;;;;;6.15;73.88;100548.72;5049989;28;20052;-54
2022/02/10 05:16:51;;;;;;;15.02;9.98;;;;;;;5.96;74.27;100553.22;5058536;28;20053;-58
2022/02/10 05:19:38;;;;;;;15.20;9.85;;;;;;;5.95;75.14;100557.09;5059016;28;20052;-58
2022/02/10 05:35:46;;;;;;;16.17;9.77;;;;;;;6.07;76.53;100566.75;5044538;28;20061;-57
2022/02/10 05:38:17;;;;;;;16.98;10.32;;;;;;;6.23;76.33;100567.50;5058599;28;20049;-55
2022/02/10 05:43:45;;;;;;;15.45;10.13;;;;;;;6.45;76.13;100558.81;5018451;28;20348;-57
2022/02/10 05:46:21;;;;;;;14.68;11.10;;;;;;;6.56;76.00;100562.34;5038000;28;20409;-57
2022/02/10 05:54:43;;;;;;;13.32;9.45;;;;;;;6.89;74.88;100571.03;5031240;28;20363;-57
2022/02/10 05:57:29;;;;;;;12.60;8.95;;;;;;;6.96;74.13;100567.94;5054057;28;20053;-57
2022/02/10 06:50:02;;;;;;;10.80;6.70;;;;;;;7.68;69.26;100549.53;5073914;28;20601;-58
2022/02/10 06:52:37;;;;;;;8.80;6.80;;;;;;;7.73;69.83;100555.06;5055381;28;20053;-59
2022/02/10 06:55:15;;;;;;;11.18;7.05;;;;;;;7.76;69.35;100550.03;5054407;28;20417;-58
2022/02/10 07:03:52;;;;;;;10.00;6.78;;;;;;;8.11;68.85;100552.41;5050778;28;20056;-58
2022/02/10 07:06:27;;;;;;;9.65;6.70;;;;;;;8.08;68.54;100541.06;5034247;28;20084;-56
2022/02/10 07:12:03;;;;;;;10.10;7.35;;;;;;;8.03;68.54;100547.50;5040841;28;20056;-58
2022/02/10 07:43:10;;;;;;;8.65;6.40;;;;;;;8.17;68.01;100544.00;5045220;28;20422;-54
2022/02/10 07:54:02;;;;;;;10.32;6.60;;;;;;;8.09;66.63;100581.56;5129731;28;20063;-57
2022/02/10 07:59:40;;;;;;;9.82;6.25;;;;;;;8.27;66.65;100588.28;5118375;28;20048;-59
2022/02/10 08:55:02;;;;;;;13.18;8.43;;;;;;;8.77;66.10;100601.81;5098908;28;20058;-59
2022/02/10 08:57:44;;;;;;;30.50;10.98;;;;;;;10.23;62.67;100597.97;5112587;28;20059;-56
2022/02/10 09:05:55;;;;;;;14.50;8.07;;;;;;;11.68;57.48;100602.78;5107524;28;20484;-57
2022/02/10 09:56:07;;;;;;;13.10;8.57;;;;;;;10.34;61.66;100638.44;5111902;28;20103;-57
2022/02/10 09:58:44;;;;;;;13.80;9.20;;;;;;;10.03;62.78;100640.94;5092145;28;20056;-57
2022/02/10 10:01:19;;;;;;;15.10;9.63;;;;;;;10.10;62.90;100636.63;5104536;28;20484;-58
2022/02/10 10:04:09;;;;;;;13.73;8.38;;;;;;;10.23;62.54;100643.34;5111812;28;20048;-58
2022/02/10 10:07:01;;;;;;;14.00;8.88;;;;;;;10.12;62.45;100636.28;5108925;28;20439;-58
2022/02/10 10:09:46;;;;;;;11.50;8.35;;;;;;;10.05;63.00;100642.28;5112110;28;20048;-56
2022/02/10 10:15:24;;;;;;;13.50;7.93;;;;;;;10.08;63.11;100640.81;5048892;28;20052;-56
2022/02/10 10:18:32;;;;;;;11.43;8.00;;;;;;;10.24;62.89;100644.97;5106823;28;20106;-56
2022/02/10 10:21:16;;;;;;;13.95;9.05;;;;;;;10.33;62.19;100642.31;5109978;28;20059;-55
2022/02/10 10:23:59;;;;;;;10.20;7.53;;;;;;;10.46;62.64;100641.53;5111312;28;20055;-55
2022/02/10 10:26:54;;;;;;;10.00;7.28;;;;;;;10.55;62.12;100661.13;5111357;28;20055;-55
2022/02/10 10:52:21;;;;;;;14.02;8.73;;;;;;;9.88;68.01;100658.75;5028703;28;20045;-55
2022/02/10 10:54:59;;;;;;;12.35;9.18;;;;;;;9.88;68.93;100664.31;5084631;28;20052;-53
2022/02/10 10:57:30;;;;;;;14.50;10.13;;;;;;;9.95;68.36;100661.94;5111834;28;20051;-58
2022/02/10 11:37:33;;;;;;;16.08;13.73;;;;;;;9.21;75.98;100668.16;5072935;28;20059;-59
2022/02/10 11:40:10;;;;;;;16.83;13.05;;;;;;;9.19;76.14;100664.03;5084387;28;20519;-57
2022/02/10 11:42:52;;;;;;;14.52;12.75;;;;;;;9.33;75.72;100660.19;5108934;28;20472;-56
2022/02/10 11:59:39;;;;;;;14.18;12.20;;;;;;;9.32;76.15;100669.66;5105458;28;20412;-58
2022/02/10 13:48:52;;;;;;;5.63;4.40;;;;;;;10.06;70.00;100665.38;5074250;28;20420;-58
2022/02/10 14:13:26;;;;;;;5.80;4.97;;;;;;;9.74;70.16;100659.53;5063266;28;20167;-57
2022/02/10 14:16:08;;;;;;;4.80;4.10;;;;;;;9.68;70.43;100660.75;5065820;28;20509;-58
2022/02/10 14:18:40;;;;;;;6.80;4.93;;;;;;;9.74;70.16;100655.91;5069441;28;20425;-58
2022/02/10 14:21:13;;;;;;;6.00;4.78;;;;;;;9.73;70.00;100657.03;5065730;28;20053;-58
2022/02/10 14:29:20;;;;;;;7.00;5.60;;;;;;;10.26;69.90;100662.19;5030032;28;20056;-57
2022/02/10 14:31:52;;;;;;;9.43;7.55;;;;;;;10.68;68.57;100681.75;5065176;28;20053;-59
2022/02/10 14:34:25;;;;;;;7.20;5.80;;;;;;;11.10;67.57;100676.94;5058863;28;20056;-58
2022/02/10 14:37:11;;;;;;;7.35;5.55;;;;;;;11.12;67.27;100686.66;5065433;28;20052;-59
2022/02/10 14:39:54;;;;;;;9.15;6.03;;;;;;;11.15;67.19;100685.22;5054230;28;20060;-57
2022/02/10 15:21:43;;;;;;;9.23;6.28;;;;;;;9.52;70.35;100701.88;5058168;28;19932;-58
2022/02/10 15:46:57;;;;;;;7.18;6.00;;;;;;;9.44;70.75;100718.41;5049500;28;20119;-57
2022/02/10 15:49:48;;;;;;;8.82;7.03;;;;;;;9.28;71.21;100721.41;5050789;28;20063;-59
2022/02/10 15:52:41;;;;;;;8.52;6.43;;;;;;;9.26;71.45;100715.34;5051949;28;20053;-57
2022/02/10 16:17:43;;;;;;;7.50;6.50;;;;;;;9.26;71.47;100700.59;5011473;28;20165;-59
2022/02/10 16:20:18;;;;;;;12.75;8.65;;;;;;;9.31;71.64;100708.88;5041393;28;20048;-57
2022/02/10 16:22:58;;;;;;;8.30;6.68;;;;;;;9.32;71.46;100710.50;5048578;28;20453;-59
2022/02/10 16:25:28;;;;;;;12.25;7.20;;;;;;;9.34;71.28;100709.09;5050854;28;20056;-59
2022/02/10 16:28:08;;;;;;;11.23;7.57;;;;;;;9.39;71.35;100708.19;5050705;28;20052;-59
2022/02/10 16:30:38;;;;;;;10.40;7.10;;;;;;;9.40;71.20;100712.63;5052708;28;20382;-56
2022/02/10 16:33:07;;;;;;;11.80;7.97;;;;;;;9.32;71.18;100714.13;5053161;28;20402;-58
2022/02/10 16:35:39;;;;;;;11.60;8.50;;;;;;;9.41;70.76;100705.94;5054813;28;20067;-59
2022/02/10 16:38:06;;;;;;;10.55;7.90;;;;;;;9.14;71.94;100706.59;5048096;28;21038;-59
2022/02/10 16:40:33;;;;;;;10.85;7.95;;;;;;;9.07;71.28;100712.53;5050365;28;20536;-59
2022/02/10 16:43:01;;;;;;;10.48;7.60;;;;;;;9.10;71.18;100713.88;5053648;28;20045;-58
2022/02/10 16:45:29;;;;;;;10.65;8.02;;;;;;;9.15;71.41;100713.81;5055614;28;20049;-57
2022/02/10 16:47:58;;;;;;;12.85;8.30;;;;;;;9.03;72.01;100705.06;5052874;28;20049;-57
2022/02/10 16:50:26;;;;;;;;;;;;;;;8.92;71.75;100705.25;5048720;28;20053;-58
2022/02/10 16:52:58;;;;;;;11.82;8.50;;;;;;;8.65;72.24;100705.84;5054467;28;19921;-58
2022/02/10 16:55:38;;;;;;;11.82;8.27;;;;;;;8.71;71.82;100712.16;5048562;28;20045;-59
2022/02/10 16:58:17;;;;;;;12.98;8.77;;;;;;;8.67;72.69;100708.31;5048132;28;20057;-58
2022/02/10 17:03:48;;;;;;;13.07;8.82;;;;;;;8.71;72.22;100712.16;5056690;28;20055;-60
2022/02/10 17:20:27;;;;;;;13.52;9.13;;;;;;;8.59;72.50;100707.03;5034096;28;20048;-59
2022/02/10 17:25:44;;;;;;;11.55;8.10;;;;;;;8.35;72.57;100701.41;5057318;28;20060;-60
2022/02/10 17:28:12;;;;;;;14.10;8.40;;;;;;;8.10;73.19;100700.53;5060587;28;20405;-59
2022/02/10 17:33:26;;;;;;;12.00;6.35;;;;;;;8.18;71.27;100707.41;5045117;28;20050;-59
2022/02/10 17:36:08;;;;;;;12.90;7.65;;;;;;;8.18;72.07;100706.59;5050819;28;20069;-59
2022/02/10 17:41:58;;;;;;;12.10;6.60;;;;;;;8.31;71.71;100705.91;5061563;28;20083;-60
2022/02/10 17:44:51;;;;;;;11.13;6.32;;;;;;;8.12;72.15;100709.41;5058204;28;20057;-60
2022/02/10 17:53:03;;;;;;;11.90;7.07;;;;;;;8.43;71.03;100727.75;4996159;28;20050;-56
2022/02/10 17:55:31;;;;;;;10.60;7.25;;;;;;;8.44;71.66;100719.13;5037315;28;20061;-56
2022/02/10 17:57:59;;;;;;;11.73;7.43;;;;;;;8.54;72.01;100726.50;5053344;28;20041;-59
2022/02/10 18:00:26;;;;;;;14.32;7.63;;;;;;;8.58;72.10;100730.34;5051174;28;20045;-59
2022/02/10 18:02:59;;;;;;;13.02;8.05;;;;;;;8.62;71.78;100723.09;5054389;28;20048;-57
2022/02/10 18:08:16;;;;;;;13.68;8.88;;;;;;;8.67;70.79;100724.97;5047155;28;21085;-59
2022/02/10 18:13:43;;;;;;;12.73;8.88;;;;;;;8.66;71.88;100731.66;5083916;27;21265;-58
2022/02/10 18:16:17;;;;;;;9.88;8.02;;;;;;;8.66;72.09;100728.88;5088395;28;20051;-61
2022/02/10 18:18:51;;;;;;;14.57;9.50;;;;;;;8.58;71.04;100726.75;5076145;28;20051;-61
2022/02/10 18:21:34;;;;;;;12.02;8.27;;;;;;;8.21;72.71;100737.38;5074997;28;20063;-60
2022/02/10 18:24:07;;;;;;;15.30;8.43;;;;;;;8.18;72.08;100729.63;5080605;28;20044;-61
2022/02/10 18:26:57;;;;;;;11.65;7.75;;;;;;;8.37;71.68;100721.38;5074089;28;20404;-60
2022/02/10 18:29:47;;;;;;;;;;;;;;;8.13;72.50;100738.81;5077831;28;20055;-61
2022/02/10 19:06:21;;;;;;;7.18;4.53;;;;;;;7.72;70.34;100754.97;5068264;28;20548;-60
2022/02/10 19:09:03;;;;;;;6.15;4.25;;;;;;;7.42;71.00;100756.81;5072527;28;20053;-61
2022/02/10 19:11:30;;;;;;;5.57;4.20;;;;;;;7.48;70.76;100766.78;5071410;28;20044;-59
2022/02/10 19:14:03;;;;;;;8.27;5.00;;;;;;;7.36;71.71;100765.47;5073917;28;20052;-62
2022/02/10 19:16:30;;;;;;;6.78;4.82;;;;;;;7.38;71.71;100772.38;5070902;28;20481;-58
2022/02/10 19:18:59;;;;;;;7.28;4.97;;;;;;;7.39;72.24;100770.41;5065616;28;20060;-60
2022/02/10 19:21:26;;;;;;;7.23;5.00;;;;;;;7.41;71.90;100765.41;5070083;28;20052;-60
2022/02/10 19:23:54;;;;;;;6.13;4.60;;;;;;;7.40;71.64;100775.69;5064448;28;20054;-60
2022/02/10 19:26:22;;;;;;;9.02;5.00;;;;;;;7.27;72.89;100770.78;5058128;28;20428;-60
2022/02/10 19:28:49;;;;;;;7.70;5.30;;;;;;;7.28;72.72;100775.19;5056300;28;20512;-59
2022/02/10 19:31:20;;;;;;;8.43;5.05;;;;;;;7.34;73.34;100776.00;5058763;28;20155;-60
2022/02/10 19:33:50;;;;;;;6.65;4.68;;;;;;;7.39;72.51;100785.13;5068294;28;20409;-60
2022/02/10 19:36:19;;;;;;;6.45;4.30;;;;;;;7.30;73.23;100787.63;5066092;28;20045;-60
2022/02/10 19:38:47;;;;;;;8.95;4.53;;;;;;;7.34;73.05;100781.53;5068901;28;20059;-60
2022/02/10 19:41:14;;;;;;;8.27;4.68;;;;;;;7.23;72.41;100795.44;5062809;28;20045;-60
2022/02/10 19:43:42;;;;;;;7.32;4.40;;;;;;;7.38;72.19;100793.72;5061306;28;20049;-60
2022/02/10 19:46:12;;;;;;;6.13;3.83;;;;;;;7.44;72.68;100790.63;5069628;28;20056;-60
2022/02/10 19:48:39;;;;;;;6.10;3.70;;;;;;;7.39;72.50;100785.13;5060880;28;20049;-58
2022/02/10 19:51:07;;;;;;;8.15;5.55;;;;;;;7.46;72.52;100793.13;5065776;28;20075;-60
2022/02/10 19:53:36;;;;;;;7.65;5.35;;;;;;;7.29;73.29;100785.19;5064652;28;20052;-60
2022/02/10 19:56:04;;;;;;;6.40;4.68;;;;;;;7.41;72.83;100793.13;5065136;28;20395;-59
2022/02/10 19:58:32;;;;;;;7.55;4.57;;;;;;;7.49;72.43;100803.63;5068517;28;20059;-55
2022/02/10 20:01:01;;;;;;;8.25;4.18;;;;;;;7.42;72.15;100803.13;5066429;28;20079;-58
2022/02/10 20:03:32;;;;;;;7.60;5.15;;;;;;;7.36;72.74;100801.47;5064009;28;20060;-60
2022/02/10 20:06:00;;;;;;;6.90;4.75;;;;;;;7.36;72.29;100802.31;5053942;28;20080;-59
2022/02/10 20:08:28;;;;;;;7.68;5.00;;;;;;;7.45;72.68;100808.06;5055654;28;20517;-58
2022/02/10 20:10:57;;;;;;;7.50;5.03;;;;;;;7.48;72.21;100810.28;5062342;28;20064;-59
2022/02/10 20:13:27;;;;;;;5.60;4.00;;;;;;;7.37;71.95;100817.84;5065868;28;20049;-59
2022/02/10 20:15:55;;;;;;;5.13;3.35;;;;;;;7.27;71.48;100821.47;5057487;28;20064;-60
2022/02/10 20:18:23;;;;;;;6.75;3.90;;;;;;;7.24;71.52;100822.03;5064975;28;20040;-60
2022/02/10 20:20:53;;;;;;;5.03;2.88;;;;;;;7.18;71.62;100812.09;5072753;28;20048;-60
2022/02/10 20:23:21;;;;;;;4.00;2.97;;;;;;;7.23;71.13;100809.28;5072117;28;20072;-60
2022/02/10 20:25:49;;;;;;;3.45;1.65;;;;;;;7.09;68.40;100819.31;5073622;28;20052;-60
2022/02/10 20:28:22;;;;;;;4.75;1.75;;;;;;;6.96;69.35;100817.16;5069424;28;20056;-59
2022/02/10 20:30:50;;;;;;;2.65;1.50;;;;;;;7.06;69.26;100817.13;5054070;28;20457;-59
2022/02/10 20:33:21;;;;;;;5.25;3.33;;;;;;;7.05;68.89;100819.03;5056616;28;20378;-62
2022/02/10 20:35:53;;;;;;;2.78;1.63;;;;;;;7.07;68.96;100818.78;5054557;28;20494;-60
2022/02/10 20:38:22;;;;;;;3.22;1.60;;;;;;;7.09;68.19;100822.91;5059859;28;20052;-59
2022/02/10 20:41:00;;;;;;;2.35;1.33;;;;;;;7.13;68.47;100827.91;5063019;28;20056;-59
2022/02/10 20:43:29;;;;;;;3.67;1.63;;;;;;;7.01;68.58;100829.03;5065198;28;20056;-59
2022/02/10 20:46:00;;;;;;;3.15;1.52;;;;;;;7.01;68.43;100823.50;5062865;28;20048;-56
2022/02/10 20:48:30;;;;;;;2.78;1.80;;;;;;;6.87;67.58;100817.75;5064036;28;20049;-60
2022/02/10 20:50:58;;;;;;;3.50;1.60;;;;;;;6.90;68.27;100833.78;5059728;28;20044;-61
2022/02/10 20:53:29;;;;;;;3.83;1.50;;;;;;;6.89;68.45;100825.78;5060434;28;20140;-60
2022/02/10 20:55:59;;;;;;;3.22;1.52;;;;;;;6.83;68.24;100827.72;5060837;28;20060;-60
2022/02/10 20:58:34;;;;;;;2.80;1.65;;;;;;;6.63;69.42;100830.50;5058760;28;20513;-60
2022/02/10 21:01:05;;;;;;;3.22;1.75;;;;;;;6.59;69.42;100832.19;5059143;28;20048;-60
2022/02/10 21:03:35;;;;;;;4.80;2.03;;;;;;;6.63;69.32;100836.06;5061154;28;20045;-60
2022/02/10 21:06:09;;;;;;;3.45;1.98;;;;;;;6.59;69.79;100837.72;5064535;28;20041;-57
2022/02/10 21:08:44;;;;;;;3.58;2.40;;;;;;;6.44;69.54;100839.38;5057309;28;20460;-60
2022/02/10 21:11:11;;;;;;;3.90;2.63;;;;;;;6.55;69.68;100836.63;5063196;28;20044;-58
2022/02/10 21:13:40;;;;;;;3.13;2.25;;;;;;;6.55;70.44;100844.91;5063142;28;20040;-59
2022/02/10 21:16:07;;;;;;;5.25;2.47;;;;;;;6.53;69.89;100836.06;5062196;28;20068;-58
2022/02/10 21:18:35;;;;;;;3.38;2.20;;;;;;;6.54;69.85;100832.19;5063515;28;20075;-60
2022/02/10 21:21:07;;;;;;;3.40;2.30;;;;;;;6.47;70.42;100833.31;5062140;28;20055;-59
2022/02/10 21:23:39;;;;;;;3.55;2.40;;;;;;;6.49;70.48;100833.88;5059489;28;20056;-60
2022/02/10 21:26:07;;;;;;;6.38;3.08;;;;;;;6.41;70.57;100831.66;5058777;28;20052;-60
2022/02/10 21:28:37;;;;;;;5.25;2.70;;;;;;;6.49;69.42;100836.63;5056390;28;20049;-59
2022/02/10 21:31:07;;;;;;;4.30;2.38;;;;;;;6.29;70.30;100842.16;5063301;28;20498;-59
2022/02/10 21:33:49;;;;;;;6.10;2.80;;;;;;;6.19;71.09;100845.75;5065474;28;20143;-60
2022/02/10 21:39:33;;;;;;;3.88;2.90;;;;;;;6.31;70.30;100848.25;5016710;28;20092;-59
2022/02/10 21:47:57;;;;;;;4.53;3.28;;;;;;;6.17;70.58;100849.91;5051536;28;20124;-59
2022/02/10 22:09:49;;;;;;;4.88;3.50;;;;;;;5.98;71.56;100855.97;5051588;28;20056;-58
2022/02/10 22:18:30;;;;;;;6.55;3.80;;;;;;;5.60;74.34;100863.59;5065897;28;20059;-59
2022/02/10 22:21:01;;;;;;;6.00;4.25;;;;;;;5.62;73.72;100853.09;5057435;28;20063;-58
2022/02/10 22:23:29;;;;;;;4.70;2.88;;;;;;;5.65;73.63;100858.09;5056846;28;20060;-57
2022/02/10 22:26:01;;;;;;;6.90;3.20;;;;;;;5.44;74.09;100865.47;5055229;28;20049;-57
2022/02/10 22:28:35;;;;;;;4.80;3.25;;;;;;;5.42;73.83;100877.91;5059286;28;20796;-58
2022/02/10 22:31:21;;;;;;;6.47;3.10;;;;;;;5.47;73.63;100884.25;5059325;28;20064;-59
2022/02/10 22:33:59;;;;;;;4.40;2.78;;;;;;;5.33;74.86;100883.09;5058849;28;20052;-57
2022/02/10 22:36:28;;;;;;;5.93;3.45;;;;;;;5.39;74.58;100878.44;5056174;28;20049;-59
2022/02/10 22:39:00;;;;;;;4.82;2.85;;;;;;;5.34;74.68;100883.94;5062786;28;20056;-57
2022/02/10 22:41:28;;;;;;;4.40;2.97;;;;;;;5.41;74.43;100879.81;5070511;28;20477;-58
2022/02/10 22:43:56;;;;;;;5.72;3.30;;;;;;;5.36;74.56;100881.75;5066071;28;20056;-58
2022/02/10 22:46:24;;;;;;;7.28;4.25;;;;;;;5.19;75.32;100880.00;5070245;28;20053;-59
2022/02/10 22:48:52;;;;;;;5.07;3.88;;;;;;;4.73;76.61;100882.50;5070829;28;20052;-59
2022/02/10 22:51:21;;;;;;;5.68;4.05;;;;;;;4.74;75.40;100881.38;5070510;28;20049;-59
2022/02/10 22:53:49;;;;;;;6.50;4.90;;;;;;;4.68;75.18;100868.66;5055346;28;20044;-60
2022/02/10 22:56:19;;;;;;;6.28;4.50;;;;;;;4.65;75.28;100866.44;5070769;28;20048;-55
2022/02/10 22:58:46;;;;;;;9.25;5.18;;;;;;;4.32;76.25;100868.38;5070065;28;20045;-60
2022/02/10 23:01:15;;;;;;;6.32;4.47;;;;;;;4.32;76.02;100856.50;5073036;28;20412;-58
2022/02/10 23:03:45;;;;;;;4.83;3.67;;;;;;;4.37;75.41;100827.06;5074766;28;20497;-60
2022/02/10 23:06:14;;;;;;;4.80;3.78;;;;;;;4.16;76.47;100826.06;5074779;28;20057;-60
2022/02/10 23:08:42;;;;;;;7.25;4.72;;;;;;;4.19;76.00;100824.72;5074322;28;20048;-59
2022/02/10 23:11:14;;;;;;;4.50;3.08;;;;;;;4.26;76.12;100814.28;5074410;28;20053;-56
2022/02/10 23:13:45;;;;;;;7.22;3.90;;;;;;;4.42;75.50;100820.75;5069356;28;20049;-56
2022/02/10 23:16:14;;;;;;;6.97;4.30;;;;;;;4.40;75.55;100829.28;5059678;28;20049;-58
2022/02/10 23:18:44;;;;;;;6.57;4.47;;;;;;;4.24;75.83;100838.53;5073573;28;20056;-59
2022/02/10 23:21:13;;;;;;;;;;;;;;;4.06;76.79;100829.56;5073546;28;20523;-57
2022/02/10 23:23:44;;;;;;;7.03;4.53;;;;;;;4.23;76.20;100825.84;5063269;28;19921;-55
2022/02/10 23:26:16;;;;;;;7.18;4.50;;;;;;;4.16;76.04;100833.50;5056888;28;20056;-58
2022/02/10 23:28:45;;;;;;;5.68;4.38;;;;;;;4.09;75.85;100835.66;5073002;28;20057;-55
2022/02/10 23:31:15;;;;;;;4.85;3.75;;;;;;;4.20;75.20;100838.25;5063458;28;20053;-58
2022/02/10 23:33:50;;;;;;;4.97;3.90;;;;;;;4.21;75.02;100839.06;5054634;28;20048;-56
2022/02/10 23:39:11;;;;;;;5.15;3.28;;;;;;;4.38;75.71;100855.47;5050763;28;20521;-55
2022/02/10 23:42:07;;;;;;;4.60;3.10;;;;;;;4.43;75.71;100859.09;5066318;28;20504;-58
2022/02/10 23:44:38;;;;;;;4.60;3.28;;;;;;;4.57;75.16;100845.66;5058526;28;20060;-59
2022/02/10 23:47:08;;;;;;;5.53;3.40;;;;;;;4.71;75.23;100845.22;5054160;28;20057;-59
2022/02/10 23:49:37;;;;;;;5.40;3.33;;;;;;;4.66;74.38;100849.63;5053616;28;20052;-59
2022/02/10 23:52:07;;;;;;;4.15;3.50;;;;;;;4.65;74.74;100855.38;5054206;28;20060;-59
2022/02/10 23:54:36;;;;;;;;;;;;;;;4.66;74.10;100843.25;5054301;28;20049;-54
2022/02/10 23:57:11;;;;;;;6.03;3.55;;;;;;;4.57;74.44;100845.66;5053604;28;19921;-57
